Time;durP1;ratioP1;P1;durP2;ratioP2;P2;SDS_P1;SDS_P2;PMS_P1;PMS_P2;Temp;Humidity;BMP_temperature;BMP_pressure;BME280_temperature;BME280_humidity;BME280_pressure;Samples;Min_cycle;Max_cycle;Signal;HPM_P1;HPM_P2
2024/01/30 09:00:59;;;;;;;;;;;;;;;;;;5673155;23;19958;-92
2024/01/30 09:03:24;;;;;;;;;;;;;;;;;;4938994;29;19918;-92
2024/01/30 09:05:49;;;;;;;;;;;;;;;;;;4937862;29;19926;-91
2024/01/30 09:08:15;;;;;;;;;;;;;;;;;;4938595;29;20456;-92
2024/01/30 09:10:40;;;;;;;;;;;;;;;;;;4936884;29;20009;-92
2024/01/30 09:13:06;;;;;;;;;;;;;;;;;;4936954;29;19918;-91
2024/01/30 09:15:32;;;;;;;;;;;;;;;;;;4937456;29;19921;-93
2024/01/30 09:17:57;;;;;;;;;;;;;;;;;;4938596;29;19931;-93
2024/01/30 09:20:22;;;;;;;;;;;;;;;;;;4937892;29;19918;-92
2024/01/30 09:22:50;;;;;;;;;;;;;;;;;;4937272;29;19922;-91
2024/01/30 09:25:15;;;;;;;;;;;;;;;;;;4937474;29;19914;-92
2024/01/30 09:27:40;;;;;;;;;;;;;;;;;;4937457;29;20338;-92
2024/01/30 09:30:06;;;;;;;;;;;;;;;;;;4937103;29;19914;-92
2024/01/30 09:32:31;;;;;;;;;;;;;;;;;;4937380;29;19911;-92
2024/01/30 09:34:57;;;;;;;;;;;;;;;;;;4937101;29;19915;-92
2024/01/30 09:37:22;;;;;;;;;;;;;;;;;;4936812;29;20365;-92
2024/01/30 09:39:47;;;;;;;;;;;;;;;;;;4936893;29;20428;-92
2024/01/30 09:42:16;;;;;;;;;;;;;;;;;;4936935;29;20353;-91
2024/01/30 09:44:43;;;;;;;;;;;;;;;;;;4936894;29;19915;-92
2024/01/30 09:47:08;;;;;;;;;;;;;;;;;;4937074;29;19915;-92
2024/01/30 09:49:34;;;;;;;;;;;;;;;;;;4936841;29;19926;-92
2024/01/30 09:52:05;;;;;;;;;;;;;;;;;;4936962;29;19925;-92
2024/01/30 09:54:31;;;;;;;;;;;;;;;;;;4937115;29;20357;-92
2024/01/30 09:56:57;;;;;;;;;;;;;;;;;;4937354;29;19945;-92
2024/01/30 09:59:22;;;;;;;;;;;;;;;;;;4937876;29;19993;-95
2024/01/30 10:01:48;;;;;;;;;;;;;;;;;;4937300;29;20404;-93
2024/01/30 10:04:13;;;;;;;;;;;;;;;;;;4937353;29;19915;-90
2024/01/30 10:06:42;;;;;;;;;;;;;;;;;;4937276;29;20263;-96
2024/01/30 10:09:08;;;;;;;;;;;;;;;;;;4937138;29;19915;-91
2024/01/30 10:11:34;;;;;;;;;;;;;;;;;;4937008;29;19962;-92
2024/01/30 10:14:00;;;;;;;;;;;;;;;;;;4937594;29;19918;-94
2024/01/30 10:16:25;;;;;;;;;;;;;;;;;;4936563;29;20353;-87
2024/01/30 10:18:50;;;;;;;;;;;;;;;;;;4935180;29;20017;-91
2024/01/30 10:21:16;;;;;;;;;;;;;;;;;;4937390;29;19922;-89
2024/01/30 10:23:43;;;;;;;;;;;;;;;;;;4938752;29;19922;-89
2024/01/30 10:26:08;;;;;;;;;;;;;;;;;;4940758;29;19922;-94
2024/01/30 10:28:33;;;;;;;;;;;;;;;;;;4939754;29;20285;-89
2024/01/30 10:31:03;;;;;;;;;;;;;;;;;;4940130;29;20322;-92
2024/01/30 10:33:29;;;;;;;;;;;;;;;;;;4939960;29;19966;-94
2024/01/30 10:36:04;;;;;;;;;;;;;;;;;;4940019;29;19919;-93
2024/01/30 12:31:47;;;;;;;;;;;;;;;;;;5560846;23;20025;-88
2024/01/30 12:34:13;;;;;;;;;;;;;;;;;;4936880;29;19958;-90
2024/01/30 12:36:39;;;;;;;;;;;;;;;;;;4937916;29;19914;-90
2024/01/30 12:39:04;;;;;;;;;;;;;;;;;;4937803;29;19921;-89
2024/01/30 12:41:30;;;;;;;;;;;;;;;;;;4937144;29;19915;-89
2024/01/30 12:43:56;;;;;;;;;;;;;;;;;;4936010;29;20432;-91
2024/01/30 12:46:25;;;;;;;;;;;;;;;;;;4937788;29;19997;-91
2024/01/30 18:06:07;;;;;;;;;;;;;;;;;;4992809;23;19922;-88
2024/01/30 18:08:34;;;;;;;;;;;;;;;;;;4939894;29;19919;-89
2024/01/30 18:11:00;;;;;;;;;;;;;;;;;;4940076;29;19926;-92
2024/01/30 18:13:25;;;;;;;;;;;;;;;;;;4940014;29;19922;-95
2024/01/30 18:15:50;;;;;;;;;;;;;;;;;;4945887;29;19914;-94
2024/01/30 18:18:17;;;;;;;;;;;;;;;;;;4939794;29;19919;-96
2024/01/30 18:20:43;;;;;;;;;;;;;;;;;;4936785;29;19921;-96
2024/01/30 18:23:08;;;;;;;;;;;;;;;;;;4936184;29;20348;-94
2024/01/30 18:25:33;;;;;;;;;;;;;;;;;;4936074;29;19914;-93
2024/01/30 18:28:01;;;;;;;;;;;;;;;;;;4937673;29;19966;-94
2024/01/30 18:30:26;;;;;;;;;;;;;;;;;;4937063;29;19966;-94
2024/01/30 18:32:53;;;;;;;;;;;;;;;;;;4936300;29;19918;-95
2024/01/30 18:35:18;;;;;;;;;;;;;;;;;;4938265;29;19921;-96
2024/01/30 18:37:43;;;;;;;;;;;;;;;;;;4939145;29;19997;-91
2024/01/30 18:40:09;;;;;;;;;;;;;;;;;;4937843;29;20388;-95
2024/01/30 18:42:34;;;;;;;;;;;;;;;;;;4938394;29;19918;-94
2024/01/30 18:45:00;;;;;;;;;;;;;;;;;;4940669;29;19921;-95
2024/01/30 18:47:25;;;;;;;;;;;;;;;;;;4940458;29;19925;-93
2024/01/30 18:49:51;;;;;;;;;;;;;;;;;;4939947;29;19915;-94
2024/01/30 18:52:16;;;;;;;;;;;;;;;;;;4939741;29;20017;-91
2024/01/30 18:54:42;;;;;;;;;;;;;;;;;;4942993;29;19990;-95
2024/01/30 18:57:07;;;;;;;;;;;;;;;;;;4942393;29;20016;-96
2024/01/30 18:59:32;;;;;;;;;;;;;;;;;;4941025;29;20350;-96
2024/01/30 19:01:58;;;;;;;;;;;;;;;;;;4942260;29;19914;-95
2024/01/30 19:04:23;;;;;;;;;;;;;;;;;;4940761;29;19922;-95
2024/01/30 19:06:51;;;;;;;;;;;;;;;;;;4939744;29;19940;-93
2024/01/30 19:09:17;;;;;;;;;;;;;;;;;;4941787;29;19914;-94
2024/01/30 19:11:42;;;;;;;;;;;;;;;;;;4939593;29;19922;-92
2024/01/30 19:14:08;;;;;;;;;;;;;;;;;;4941709;29;19978;-93
2024/01/30 19:16:33;;;;;;;;;;;;;;;;;;4939630;29;19914;-95
2024/01/30 19:18:59;;;;;;;;;;;;;;;;;;4940255;29;19958;-96
2024/01/30 19:21:24;;;;;;;;;;;;;;;;;;4944963;29;20370;-93
2024/01/30 19:23:50;;;;;;;;;;;;;;;;;;4938875;29;19914;-95
2024/01/30 19:26:16;;;;;;;;;;;;;;;;;;4942558;29;19921;-96
2024/01/30 19:28:42;;;;;;;;;;;;;;;;;;4947083;29;19914;-91
2024/01/30 19:31:08;;;;;;;;;;;;;;;;;;4939047;29;19922;-92
2024/01/30 19:33:34;;;;;;;;;;;;;;;;;;4939800;29;19914;-94
2024/01/30 19:35:59;;;;;;;;;;;;;;;;;;4939743;29;19919;-91
2024/01/30 19:38:25;;;;;;;;;;;;;;;;;;4940151;29;19924;-91
2024/01/30 19:40:52;;;;;;;;;;;;;;;;;;4939122;29;20013;-93
2024/01/30 19:43:17;;;;;;;;;;;;;;;;;;4940231;29;19970;-93
2024/01/30 19:45:42;;;;;;;;;;;;;;;;;;4940024;29;19918;-95
2024/01/30 19:48:08;;;;;;;;;;;;;;;;;;4940511;29;19915;-93
2024/01/30 19:50:33;;;;;;;;;;;;;;;;;;4939412;29;19915;-95
2024/01/30 19:52:58;;;;;;;;;;;;;;;;;;4930147;29;19919;-93
2024/01/30 19:55:25;;;;;;;;;;;;;;;;;;4950002;29;20298;-87
2024/01/30 19:57:50;;;;;;;;;;;;;;;;;;4941693;29;19915;-91
2024/01/30 20:00:16;;;;;;;;;;;;;;;;;;4945452;29;19957;-92
2024/01/30 20:02:42;;;;;;;;;;;;;;;;;;4943179;29;19961;-94
2024/01/30 20:05:07;;;;;;;;;;;;;;;;;;4931383;29;19922;-94
2024/01/30 20:07:34;;;;;;;;;;;;;;;;;;4944826;29;20357;-96
2024/01/30 20:09:59;;;;;;;;;;;;;;;;;;4947191;29;19982;-94
2024/01/30 20:12:24;;;;;;;;;;;;;;;;;;4956381;29;19942;-95
2024/01/30 20:14:51;;;;;;;;;;;;;;;;;;4948576;29;20013;-95
2024/01/30 20:17:16;;;;;;;;;;;;;;;;;;4947309;29;20009;-93
2024/01/30 20:19:45;;;;;;;;;;;;;;;;;;4943658;29;19946;-94
2024/01/30 20:22:10;;;;;;;;;;;;;;;;;;4936135;29;19962;-93
2024/01/30 20:24:36;;;;;;;;;;;;;;;;;;4939498;29;19918;-93
2024/01/30 20:27:01;;;;;;;;;;;;;;;;;;4938861;29;20373;-93
2024/01/30 20:29:26;;;;;;;;;;;;;;;;;;4937893;29;20285;-92
2024/01/30 20:31:52;;;;;;;;;;;;;;;;;;4937636;29;19915;-88
2024/01/30 20:34:17;;;;;;;;;;;;;;;;;;4937753;29;20441;-88
2024/01/30 20:36:47;;;;;;;;;;;;;;;;;;4938014;29;19914;-86
2024/01/30 20:39:15;;;;;;;;;;;;;;;;;;4938243;29;20469;-86
2024/01/30 20:41:41;;;;;;;;;;;;;;;;;;4937567;29;20281;-87
2024/01/30 20:44:07;;;;;;;;;;;;;;;;;;4936607;29;20330;-89
2024/01/30 20:46:32;;;;;;;;;;;;;;;;;;4921495;29;19919;-87
2024/01/30 20:48:58;;;;;;;;;;;;;;;;;;4937479;29;19930;-87
2024/01/30 20:51:23;;;;;;;;;;;;;;;;;;4938349;29;20378;-86
2024/01/30 20:53:48;;;;;;;;;;;;;;;;;;4938251;29;19914;-86
2024/01/30 20:56:14;;;;;;;;;;;;;;;;;;4936010;29;19919;-86
2024/01/30 20:58:39;;;;;;;;;;;;;;;;;;4937107;29;19922;-86
2024/01/30 21:01:05;;;;;;;;;;;;;;;;;;4936683;29;19918;-86
2024/01/30 21:03:31;;;;;;;;;;;;;;;;;;4937259;29;19986;-87
2024/01/30 21:06:00;;;;;;;;;;;;;;;;;;4940088;29;20369;-91
2024/01/30 21:08:25;;;;;;;;;;;;;;;;;;4943006;29;20289;-87
2024/01/30 21:10:51;;;;;;;;;;;;;;;;;;4935930;29;20001;-87
2024/01/30 21:13:16;;;;;;;;;;;;;;;;;;4937889;29;20022;-90
2024/01/30 21:15:42;;;;;;;;;;;;;;;;;;4936001;29;19958;-87
2024/01/30 21:18:08;;;;;;;;;;;;;;;;;;4935668;29;19915;-86
2024/01/30 21:20:34;;;;;;;;;;;;;;;;;;4935645;29;20361;-91
2024/01/30 21:22:59;;;;;;;;;;;;;;;;;;4937208;29;19923;-86
2024/01/30 21:25:24;;;;;;;;;;;;;;;;;;4937449;29;20262;-87
2024/01/30 21:27:50;;;;;;;;;;;;;;;;;;4937069;29;19922;-87
2024/01/30 21:30:15;;;;;;;;;;;;;;;;;;4940708;29;19964;-87
2024/01/30 21:32:40;;;;;;;;;;;;;;;;;;4944473;29;19915;-87
2024/01/30 21:35:06;;;;;;;;;;;;;;;;;;4937126;29;20416;-88
2024/01/30 21:37:35;;;;;;;;;;;;;;;;;;4934510;29;19927;-89
2024/01/30 21:40:03;;;;;;;;;;;;;;;;;;4935127;29;20365;-90
2024/01/30 21:42:28;;;;;;;;;;;;;;;;;;4935506;29;19915;-90
2024/01/30 21:44:55;;;;;;;;;;;;;;;;;;4935975;29;19926;-91
2024/01/30 21:47:23;;;;;;;;;;;;;;;;;;4935569;29;19926;-88
2024/01/30 21:49:49;;;;;;;;;;;;;;;;;;4936557;29;19922;-88
2024/01/30 21:52:14;;;;;;;;;;;;;;;;;;4936457;29;19915;-88
2024/01/30 21:54:40;;;;;;;;;;;;;;;;;;4935319;29;19919;-88
2024/01/30 21:57:05;;;;;;;;;;;;;;;;;;4935793;29;19918;-92
2024/01/30 21:59:31;;;;;;;;;;;;;;;;;;4935774;29;19914;-89
2024/01/30 22:01:56;;;;;;;;;;;;;;;;;;4935302;29;19914;-91
2024/01/30 22:04:23;;;;;;;;;;;;;;;;;;4934967;29;19922;-87
2024/01/30 22:06:49;;;;;;;;;;;;;;;;;;4935117;29;19926;-88
2024/01/30 22:09:14;;;;;;;;;;;;;;;;;;4933387;29;19915;-89
2024/01/30 22:11:40;;;;;;;;;;;;;;;;;;4935167;29;19926;-89
2024/01/30 22:14:05;;;;;;;;;;;;;;;;;;4934767;29;19922;-88
2024/01/30 22:16:31;;;;;;;;;;;;;;;;;;4935860;29;19915;-88
2024/01/30 22:18:56;;;;;;;;;;;;;;;;;;4938442;29;19962;-93
2024/01/30 22:21:21;;;;;;;;;;;;;;;;;;4939019;29;19914;-87
2024/01/30 22:23:47;;;;;;;;;;;;;;;;;;4943152;29;19914;-91
2024/01/30 22:26:12;;;;;;;;;;;;;;;;;;4939000;29;19925;-88
2024/01/30 22:28:38;;;;;;;;;;;;;;;;;;4938790;29;19961;-88
2024/01/30 22:31:03;;;;;;;;;;;;;;;;;;4938857;29;19915;-88
2024/01/30 22:33:28;;;;;;;;;;;;;;;;;;4938628;29;19922;-89
2024/01/30 22:35:54;;;;;;;;;;;;;;;;;;4939988;29;19914;-88
2024/01/30 22:38:19;;;;;;;;;;;;;;;;;;4939760;29;20334;-95
2024/01/30 22:40:45;;;;;;;;;;;;;;;;;;4938568;29;20392;-87
2024/01/30 22:43:10;;;;;;;;;;;;;;;;;;4938445;29;19954;-90
2024/01/30 22:45:36;;;;;;;;;;;;;;;;;;4938334;29;19915;-86
2024/01/30 22:48:01;;;;;;;;;;;;;;;;;;4939406;29;20374;-92
2024/01/30 22:50:26;;;;;;;;;;;;;;;;;;4938217;29;19941;-87
2024/01/30 22:52:52;;;;;;;;;;;;;;;;;;4939570;29;19915;-87
